sensor_id;sensor_type;location;lat;lon;timestamp;pressure;altitude;pressure_sealevel;temperature
19102;BMP280;9683;49.028;12.064;2022-12-22T00:01:52;96944.47;;;5.24
19102;BMP280;9683;49.028;12.064;2022-12-22T00:04:37;96939.38;;;5.22
19102;BMP280;9683;49.028;12.064;2022-12-22T00:07:22;96928.63;;;5.24
19102;BMP280;9683;49.028;12.064;2022-12-22T00:10:07;96945.88;;;5.26
19102;BMP280;9683;49.028;12.064;2022-12-22T00:12:52;96920.31;;;5.27
19102;BMP280;9683;49.028;12.064;2022-12-22T00:15:37;96921.16;;;5.27
19102;BMP280;9683;49.028;12.064;2022-12-22T00:18:21;96916.69;;;5.21
19102;BMP280;9683;49.028;12.064;2022-12-22T00:21:08;96906.13;;;5.21
19102;BMP280;9683;49.028;12.064;2022-12-22T00:23:52;96909.78;;;5.20
19102;BMP280;9683;49.028;12.064;2022-12-22T00:26:36;96905.72;;;5.18
19102;BMP280;9683;49.028;12.064;2022-12-22T00:29:21;96917.22;;;5.10
19102;BMP280;9683;49.028;12.064;2022-12-22T00:32:11;96911.13;;;5.09
19102;BMP280;9683;49.028;12.064;2022-12-22T00:34:57;96909.13;;;5.12
19102;BMP280;9683;49.028;12.064;2022-12-22T00:37:41;96908.72;;;5.15
19102;BMP280;9683;49.028;12.064;2022-12-22T00:40:27;96902.25;;;5.17
19102;BMP280;9683;49.028;12.064;2022-12-22T00:43:11;96898.00;;;5.16
19102;BMP280;9683;49.028;12.064;2022-12-22T00:45:56;96884.19;;;5.14
19102;BMP280;9683;49.028;12.064;2022-12-22T00:48:42;96881.38;;;5.16
19102;BMP280;9683;49.028;12.064;2022-12-22T00:51:27;96882.19;;;5.16
19102;BMP280;9683;49.028;12.064;2022-12-22T00:54:13;96886.63;;;5.16
19102;BMP280;9683;49.028;12.064;2022-12-22T00:56:58;96893.72;;;5.15
19102;BMP280;9683;49.028;12.064;2022-12-22T00:59:43;96883.81;;;5.17
19102;BMP280;9683;49.028;12.064;2022-12-22T01:02:27;96887.03;;;5.19
19102;BMP280;9683;49.028;12.064;2022-12-22T01:05:13;96888.09;;;5.25
19102;BMP280;9683;49.028;12.064;2022-12-22T01:07:58;96885.06;;;5.28
19102;BMP280;9683;49.028;12.064;2022-12-22T01:10:43;96880.59;;;5.28
19102;BMP280;9683;49.028;12.064;2022-12-22T01:13:27;96872.69;;;5.28
19102;BMP280;9683;49.028;12.064;2022-12-22T01:16:12;96872.69;;;5.28
19102;BMP280;9683;49.028;12.064;2022-12-22T01:18:57;96860.50;;;5.21
19102;BMP280;9683;49.028;12.064;2022-12-22T01:21:42;96866.19;;;5.18
19102;BMP280;9683;49.028;12.064;2022-12-22T01:24:28;96860.88;;;5.11
19102;BMP280;9683;49.028;12.064;2022-12-22T01:27:12;96865.53;;;5.09
19102;BMP280;9683;49.028;12.064;2022-12-22T01:29:56;96856.00;;;5.08
19102;BMP280;9683;49.028;12.064;2022-12-22T01:32:40;96851.56;;;5.08
19102;BMP280;9683;49.028;12.064;2022-12-22T01:35:27;96858.41;;;5.09
19102;BMP280;9683;49.028;12.064;2022-12-22T01:38:13;96859.63;;;5.07
19102;BMP280;9683;49.028;12.064;2022-12-22T01:40:58;96860.66;;;5.06
19102;BMP280;9683;49.028;12.064;2022-12-22T01:43:43;96858.22;;;5.04
19102;BMP280;9683;49.028;12.064;2022-12-22T01:46:28;96846.88;;;5.04
19102;BMP280;9683;49.028;12.064;2022-12-22T01:49:15;96848.69;;;5.03
19102;BMP280;9683;49.028;12.064;2022-12-22T01:51:59;96841.59;;;5.04
19102;BMP280;9683;49.028;12.064;2022-12-22T01:54:46;96844.22;;;5.04
19102;BMP280;9683;49.028;12.064;2022-12-22T01:57:31;96840.16;;;5.01
19102;BMP280;9683;49.028;12.064;2022-12-22T02:00:15;96834.28;;;5.06
19102;BMP280;9683;49.028;12.064;2022-12-22T02:03:00;96821.72;;;5.01
19102;BMP280;9683;49.028;12.064;2022-12-22T02:05:53;96817.47;;;5.00
19102;BMP280;9683;49.028;12.064;2022-12-22T02:08:42;96809.13;;;4.97
19102;BMP280;9683;49.028;12.064;2022-12-22T02:11:38;96812.38;;;4.92
19102;BMP280;9683;49.028;12.064;2022-12-22T02:14:30;96815.41;;;4.89
19102;BMP280;9683;49.028;12.064;2022-12-22T02:17:24;96811.56;;;4.92
19102;BMP280;9683;49.028;12.064;2022-12-22T02:20:25;96810.13;;;4.89
19102;BMP280;9683;49.028;12.064;2022-12-22T02:23:19;96805.84;;;4.82
19102;BMP280;9683;49.028;12.064;2022-12-22T02:26:26;96798.56;;;4.84
19102;BMP280;9683;49.028;12.064;2022-12-22T02:29:12;96807.72;;;4.88
19102;BMP280;9683;49.028;12.064;2022-12-22T02:31:57;96809.94;;;4.91
19102;BMP280;9683;49.028;12.064;2022-12-22T02:34:41;96816.25;;;4.96
19102;BMP280;9683;49.028;12.064;2022-12-22T02:37:33;96806.53;;;5.03
19102;BMP280;9683;49.028;12.064;2022-12-22T02:40:27;96802.25;;;5.02
19102;BMP280;9683;49.028;12.064;2022-12-22T02:43:22;96798.22;;;5.00
19102;BMP280;9683;49.028;12.064;2022-12-22T02:46:18;96800.63;;;4.95
19102;BMP280;9683;49.028;12.064;2022-12-22T02:49:09;96803.25;;;4.95
19102;BMP280;9683;49.028;12.064;2022-12-22T02:52:04;96801.22;;;4.97
19102;BMP280;9683;49.028;12.064;2022-12-22T02:54:52;96806.31;;;4.98
19102;BMP280;9683;49.028;12.064;2022-12-22T02:57:36;96800.03;;;4.99
19102;BMP280;9683;49.028;12.064;2022-12-22T03:00:22;96807.31;;;4.97
19102;BMP280;9683;49.028;12.064;2022-12-22T03:03:06;96801.22;;;4.97
19102;BMP280;9683;49.028;12.064;2022-12-22T03:05:50;96803.47;;;5.00
19102;BMP280;9683;49.028;12.064;2022-12-22T03:08:34;96792.94;;;5.00
19102;BMP280;9683;49.028;12.064;2022-12-22T03:11:19;96793.31;;;4.97
19102;BMP280;9683;49.028;12.064;2022-12-22T03:14:03;96786.81;;;4.93
19102;BMP280;9683;49.028;12.064;2022-12-22T03:16:48;96784.59;;;4.90
19102;BMP280;9683;49.028;12.064;2022-12-22T03:19:33;96780.31;;;4.89
19102;BMP280;9683;49.028;12.064;2022-12-22T03:22:17;96775.06;;;4.89
19102;BMP280;9683;49.028;12.064;2022-12-22T03:25:01;96772.03;;;4.92
19102;BMP280;9683;49.028;12.064;2022-12-22T03:27:46;96763.31;;;4.91
19102;BMP280;9683;49.028;12.064;2022-12-22T03:30:12;96769.81;;;4.95
19102;BMP280;9683;49.028;12.064;2022-12-22T03:32:40;96752.78;;;4.98
19102;BMP280;9683;49.028;12.064;2022-12-22T03:35:07;96748.75;;;5.02
19102;BMP280;9683;49.028;12.064;2022-12-22T03:37:34;96751.00;;;5.05
19102;BMP280;9683;49.028;12.064;2022-12-22T03:40:00;96759.91;;;5.04
19102;BMP280;9683;49.028;12.064;2022-12-22T03:42:27;96753.41;;;5.00
19102;BMP280;9683;49.028;12.064;2022-12-22T03:45:11;96752.78;;;4.98
19102;BMP280;9683;49.028;12.064;2022-12-22T03:47:57;96744.69;;;4.99
19102;BMP280;9683;49.028;12.064;2022-12-22T03:50:24;96739.22;;;4.94
19102;BMP280;9683;49.028;12.064;2022-12-22T03:52:50;96747.13;;;4.94
19102;BMP280;9683;49.028;12.064;2022-12-22T03:55:17;96738.19;;;4.95
19102;BMP280;9683;49.028;12.064;2022-12-22T03:57:43;96735.75;;;4.94
19102;BMP280;9683;49.028;12.064;2022-12-22T04:00:10;96724.81;;;4.90
19102;BMP280;9683;49.028;12.064;2022-12-22T04:02:37;96732.91;;;4.89
19102;BMP280;9683;49.028;12.064;2022-12-22T04:05:06;96727.25;;;4.92
19102;BMP280;9683;49.028;12.064;2022-12-22T04:07:33;96733.94;;;4.88
19102;BMP280;9683;49.028;12.064;2022-12-22T04:09:59;96723.41;;;4.88
19102;BMP280;9683;49.028;12.064;2022-12-22T04:12:43;96721.97;;;4.85
19102;BMP280;9683;49.028;12.064;2022-12-22T04:15:19;96726.03;;;4.88
19102;BMP280;9683;49.028;12.064;2022-12-22T04:17:46;96729.25;;;4.90
19102;BMP280;9683;49.028;12.064;2022-12-22T04:20:14;96721.75;;;4.93
19102;BMP280;9683;49.028;12.064;2022-12-22T04:22:41;96728.47;;;4.96
19102;BMP280;9683;49.028;12.064;2022-12-22T04:25:08;96717.34;;;5.00
19102;BMP280;9683;49.028;12.064;2022-12-22T04:27:35;96720.16;;;4.99
19102;BMP280;9683;49.028;12.064;2022-12-22T04:30:01;96715.50;;;4.88
19102;BMP280;9683;49.028;12.064;2022-12-22T04:32:28;96717.91;;;4.83
19102;BMP280;9683;49.028;12.064;2022-12-22T04:34:55;96719.72;;;4.82
19102;BMP280;9683;49.028;12.064;2022-12-22T04:37:23;96710.81;;;4.90
19102;BMP280;9683;49.028;12.064;2022-12-22T04:39:49;96707.97;;;4.85
19102;BMP280;9683;49.028;12.064;2022-12-22T04:42:16;96715.28;;;4.89
19102;BMP280;9683;49.028;12.064;2022-12-22T04:44:42;96711.41;;;4.85
19102;BMP280;9683;49.028;12.064;2022-12-22T04:47:09;96710.41;;;4.93
19102;BMP280;9683;49.028;12.064;2022-12-22T04:49:36;96698.47;;;4.97
19102;BMP280;9683;49.028;12.064;2022-12-22T04:52:02;96699.09;;;4.99
19102;BMP280;9683;49.028;12.064;2022-12-22T04:54:30;96692.59;;;5.01
19102;BMP280;9683;49.028;12.064;2022-12-22T04:56:57;96694.41;;;5.01
19102;BMP280;9683;49.028;12.064;2022-12-22T04:59:31;96682.84;;;5.02
19102;BMP280;9683;49.028;12.064;2022-12-22T05:01:58;96687.13;;;5.03
19102;BMP280;9683;49.028;12.064;2022-12-22T05:04:24;96684.28;;;5.04
19102;BMP280;9683;49.028;12.064;2022-12-22T05:06:51;96675.34;;;5.05
19102;BMP280;9683;49.028;12.064;2022-12-22T05:09:18;96674.56;;;5.05
19102;BMP280;9683;49.028;12.064;2022-12-22T05:11:46;96677.59;;;5.02
19102;BMP280;9683;49.028;12.064;2022-12-22T05:14:13;96676.38;;;4.98
19102;BMP280;9683;49.028;12.064;2022-12-22T05:16:39;96677.19;;;4.98
19102;BMP280;9683;49.028;12.064;2022-12-22T05:19:06;96677.38;;;4.97
19102;BMP280;9683;49.028;12.064;2022-12-22T05:21:32;96687.31;;;5.01
19102;BMP280;9683;49.028;12.064;2022-12-22T05:23:59;96680.03;;;5.03
19102;BMP280;9683;49.028;12.064;2022-12-22T05:26:26;96668.47;;;5.04
19102;BMP280;9683;49.028;12.064;2022-12-22T05:28:54;96675.38;;;5.12
19102;BMP280;9683;49.028;12.064;2022-12-22T05:31:22;96666.66;;;5.12
19102;BMP280;9683;49.028;12.064;2022-12-22T05:33:49;96672.94;;;5.17
19102;BMP280;9683;49.028;12.064;2022-12-22T05:36:16;96662.41;;;5.17
19102;BMP280;9683;49.028;12.064;2022-12-22T05:38:43;96659.56;;;5.12
19102;BMP280;9683;49.028;12.064;2022-12-22T05:41:09;96663.41;;;5.09
19102;BMP280;9683;49.028;12.064;2022-12-22T05:43:36;96653.88;;;5.08
19102;BMP280;9683;49.028;12.064;2022-12-22T05:46:06;96662.59;;;5.02
19102;BMP280;9683;49.028;12.064;2022-12-22T05:48:36;96657.31;;;5.02
19102;BMP280;9683;49.028;12.064;2022-12-22T05:51:03;96657.13;;;5.04
19102;BMP280;9683;49.028;12.064;2022-12-22T05:53:29;96653.25;;;5.06
19102;BMP280;9683;49.028;12.064;2022-12-22T05:55:56;96648.00;;;5.06
19102;BMP280;9683;49.028;12.064;2022-12-22T05:58:23;96641.91;;;5.06
19102;BMP280;9683;49.028;12.064;2022-12-22T06:00:49;96639.06;;;5.01
19102;BMP280;9683;49.028;12.064;2022-12-22T06:03:17;96643.94;;;4.97
19102;BMP280;9683;49.028;12.064;2022-12-22T06:05:44;96642.75;;;5.00
19102;BMP280;9683;49.028;12.064;2022-12-22T06:08:10;96635.03;;;5.05
19102;BMP280;9683;49.028;12.064;2022-12-22T06:10:37;96642.94;;;5.05
19102;BMP280;9683;49.028;12.064;2022-12-22T06:13:03;96640.09;;;5.06
19102;BMP280;9683;49.028;12.064;2022-12-22T06:15:30;96631.19;;;5.07
19102;BMP280;9683;49.028;12.064;2022-12-22T06:17:57;96637.25;;;5.08
19102;BMP280;9683;49.028;12.064;2022-12-22T06:20:25;96649.00;;;5.12
19102;BMP280;9683;49.028;12.064;2022-12-22T06:22:51;96644.34;;;5.14
19102;BMP280;9683;49.028;12.064;2022-12-22T06:25:18;96642.50;;;5.15
19102;BMP280;9683;49.028;12.064;2022-12-22T06:27:45;96631.97;;;5.15
19102;BMP280;9683;49.028;12.064;2022-12-22T06:30:12;96633.59;;;5.16
19102;BMP280;9683;49.028;12.064;2022-12-22T06:32:39;96628.53;;;5.14
19102;BMP280;9683;49.028;12.064;2022-12-22T06:35:07;96627.50;;;5.15
19102;BMP280;9683;49.028;12.064;2022-12-22T06:37:35;96622.88;;;5.17
19102;BMP280;9683;49.028;12.064;2022-12-22T06:40:02;96621.25;;;5.16
19102;BMP280;9683;49.028;12.064;2022-12-22T06:42:29;96636.66;;;5.13
19102;BMP280;9683;49.028;12.064;2022-12-22T06:45:13;96633.59;;;5.16
19102;BMP280;9683;49.028;12.064;2022-12-22T06:47:40;96627.91;;;5.19
19102;BMP280;9683;49.028;12.064;2022-12-22T06:50:08;96633.00;;;5.20
19102;BMP280;9683;49.028;12.064;2022-12-22T06:52:36;96639.06;;;5.14
19102;BMP280;9683;49.028;12.064;2022-12-22T06:55:04;96644.56;;;5.13
19102;BMP280;9683;49.028;12.064;2022-12-22T06:57:31;96643.31;;;5.15
19102;BMP280;9683;49.028;12.064;2022-12-22T06:59:57;96643.94;;;5.17
19102;BMP280;9683;49.028;12.064;2022-12-22T07:02:24;96643.94;;;5.17
19102;BMP280;9683;49.028;12.064;2022-12-22T07:04:51;96635.00;;;5.18
19102;BMP280;9683;49.028;12.064;2022-12-22T07:07:17;96633.19;;;5.25
19102;BMP280;9683;49.028;12.064;2022-12-22T07:09:45;96638.63;;;5.30
19102;BMP280;9683;49.028;12.064;2022-12-22T07:12:12;96637.03;;;5.29
19102;BMP280;9683;49.028;12.064;2022-12-22T07:14:39;96639.88;;;5.28
19102;BMP280;9683;49.028;12.064;2022-12-22T07:17:05;96644.94;;;5.29
19102;BMP280;9683;49.028;12.064;2022-12-22T07:19:33;96643.72;;;5.32
19102;BMP280;9683;49.028;12.064;2022-12-22T07:22:00;96645.34;;;5.33
19102;BMP280;9683;49.028;12.064;2022-12-22T07:24:26;96645.16;;;5.34
19102;BMP280;9683;49.028;12.064;2022-12-22T07:26:55;96640.88;;;5.40
19102;BMP280;9683;49.028;12.064;2022-12-22T07:29:22;96650.19;;;5.42
19102;BMP280;9683;49.028;12.064;2022-12-22T07:31:49;96637.81;;;5.43
19102;BMP280;9683;49.028;12.064;2022-12-22T07:34:15;96634.78;;;5.39
19102;BMP280;9683;49.028;12.064;2022-12-22T07:36:42;96629.09;;;5.42
19102;BMP280;9683;49.028;12.064;2022-12-22T07:39:10;96625.44;;;5.43
19102;BMP280;9683;49.028;12.064;2022-12-22T07:41:37;96624.81;;;5.48
19102;BMP280;9683;49.028;12.064;2022-12-22T07:44:22;96617.72;;;5.55
19102;BMP280;9683;49.028;12.064;2022-12-22T07:46:49;96612.84;;;5.59
19102;BMP280;9683;49.028;12.064;2022-12-22T07:49:16;96608.75;;;5.63
19102;BMP280;9683;49.028;12.064;2022-12-22T07:52:00;96602.66;;;5.62
19102;BMP280;9683;49.028;12.064;2022-12-22T07:54:27;96602.28;;;5.59
19102;BMP280;9683;49.028;12.064;2022-12-22T07:56:54;96599.03;;;5.57
19102;BMP280;9683;49.028;12.064;2022-12-22T07:59:22;96607.94;;;5.55
19102;BMP280;9683;49.028;12.064;2022-12-22T08:01:49;96597.25;;;5.50
19102;BMP280;9683;49.028;12.064;2022-12-22T08:04:16;96602.50;;;5.50
19102;BMP280;9683;49.028;12.064;2022-12-22T08:06:42;96602.50;;;5.50
19102;BMP280;9683;49.028;12.064;2022-12-22T08:09:13;96597.81;;;5.52
19102;BMP280;9683;49.028;12.064;2022-12-22T08:11:40;96601.47;;;5.51
19102;BMP280;9683;49.028;12.064;2022-12-22T08:14:07;96603.91;;;5.53
19102;BMP280;9683;49.028;12.064;2022-12-22T08:16:35;96602.09;;;5.53
19102;BMP280;9683;49.028;12.064;2022-12-22T08:19:01;96596.00;;;5.53
19102;BMP280;9683;49.028;12.064;2022-12-22T08:21:28;96609.00;;;5.54
19102;BMP280;9683;49.028;12.064;2022-12-22T08:23:54;96597.19;;;5.57
19102;BMP280;9683;49.028;12.064;2022-12-22T08:26:24;96600.84;;;5.63
19102;BMP280;9683;49.028;12.064;2022-12-22T08:28:56;96592.31;;;5.67
19102;BMP280;9683;49.028;12.064;2022-12-22T08:31:25;96596.53;;;5.75
19102;BMP280;9683;49.028;12.064;2022-12-22T08:33:55;96596.72;;;5.80
19102;BMP280;9683;49.028;12.064;2022-12-22T08:36:22;96606.66;;;5.84
19102;BMP280;9683;49.028;12.064;2022-12-22T08:38:50;96595.28;;;5.84
19102;BMP280;9683;49.028;12.064;2022-12-22T08:41:17;96602.97;;;5.85
19102;BMP280;9683;49.028;12.064;2022-12-22T08:44:05;96595.50;;;5.89
19102;BMP280;9683;49.028;12.064;2022-12-22T08:46:32;96592.44;;;5.92
19102;BMP280;9683;49.028;12.064;2022-12-22T08:49:00;96593.44;;;5.97
19102;BMP280;9683;49.028;12.064;2022-12-22T08:51:27;96596.47;;;6.01
19102;BMP280;9683;49.028;12.064;2022-12-22T08:53:53;96595.41;;;6.09
19102;BMP280;9683;49.028;12.064;2022-12-22T08:56:20;96581.56;;;6.13
19102;BMP280;9683;49.028;12.064;2022-12-22T08:58:46;96586.41;;;6.16
19102;BMP280;9683;49.028;12.064;2022-12-22T09:01:15;96583.97;;;6.15
19102;BMP280;9683;49.028;12.064;2022-12-22T09:03:42;96583.78;;;6.16
19102;BMP280;9683;49.028;12.064;2022-12-22T09:06:10;96584.97;;;6.20
19102;BMP280;9683;49.028;12.064;2022-12-22T09:08:36;96594.09;;;6.24
19102;BMP280;9683;49.028;12.064;2022-12-22T09:11:03;96589.56;;;6.31
19102;BMP280;9683;49.028;12.064;2022-12-22T09:13:30;96596.28;;;6.34
19102;BMP280;9683;49.028;12.064;2022-12-22T09:15:56;96591.97;;;6.39
19102;BMP280;9683;49.028;12.064;2022-12-22T09:18:23;96584.19;;;6.44
19102;BMP280;9683;49.028;12.064;2022-12-22T09:20:53;96593.72;;;6.52
19102;BMP280;9683;49.028;12.064;2022-12-22T09:23:21;96595.50;;;6.58
19102;BMP280;9683;49.028;12.064;2022-12-22T09:25:47;96577.59;;;6.60
19102;BMP280;9683;49.028;12.064;2022-12-22T09:28:14;96577.59;;;6.60
19102;BMP280;9683;49.028;12.064;2022-12-22T09:30:41;96577.75;;;6.65
19102;BMP280;9683;49.028;12.064;2022-12-22T09:33:07;96587.09;;;6.68
19102;BMP280;9683;49.028;12.064;2022-12-22T09:35:34;96578.94;;;6.69
19102;BMP280;9683;49.028;12.064;2022-12-22T09:38:00;96585.84;;;6.70
19102;BMP280;9683;49.028;12.064;2022-12-22T09:40:30;96575.06;;;6.72
19102;BMP280;9683;49.028;12.064;2022-12-22T09:42:57;96574.88;;;6.73
19102;BMP280;9683;49.028;12.064;2022-12-22T09:45:24;96569.97;;;6.77
19102;BMP280;9683;49.028;12.064;2022-12-22T09:47:52;96560.78;;;6.79
19102;BMP280;9683;49.028;12.064;2022-12-22T09:50:22;96556.88;;;6.82
19102;BMP280;9683;49.028;12.064;2022-12-22T09:52:51;96552.00;;;6.85
19102;BMP280;9683;49.028;12.064;2022-12-22T09:55:35;96559.47;;;6.88
19102;BMP280;9683;49.028;12.064;2022-12-22T09:58:02;96565.94;;;6.93
19102;BMP280;9683;49.028;12.064;2022-12-22T10:00:29;96559.00;;;6.98
19102;BMP280;9683;49.028;12.064;2022-12-22T10:03:00;96549.97;;;7.06
19102;BMP280;9683;49.028;12.064;2022-12-22T10:05:36;96548.88;;;7.13
19102;BMP280;9683;49.028;12.064;2022-12-22T10:08:09;96541.66;;;7.20
19102;BMP280;9683;49.028;12.064;2022-12-22T10:10:37;96544.69;;;7.24
19102;BMP280;9683;49.028;12.064;2022-12-22T10:13:05;96545.88;;;7.28
19102;BMP280;9683;49.028;12.064;2022-12-22T10:15:37;96548.66;;;7.33
19102;BMP280;9683;49.028;12.064;2022-12-22T10:18:12;96548.59;;;7.40
19102;BMP280;9683;49.028;12.064;2022-12-22T10:20:39;96547.94;;;7.44
19102;BMP280;9683;49.028;12.064;2022-12-22T10:23:14;96539.09;;;7.50
19102;BMP280;9683;49.028;12.064;2022-12-22T10:25:59;96547.78;;;7.57
19102;BMP280;9683;49.028;12.064;2022-12-22T10:28:32;96539.75;;;7.64
19102;BMP280;9683;49.028;12.064;2022-12-22T10:31:19;96538.63;;;7.71
19102;BMP280;9683;49.028;12.064;2022-12-22T10:33:47;96527.97;;;7.78
19102;BMP280;9683;49.028;12.064;2022-12-22T10:36:19;96540.09;;;7.86
19102;BMP280;9683;49.028;12.064;2022-12-22T10:38:56;96528.59;;;7.92
19102;BMP280;9683;49.028;12.064;2022-12-22T10:41:26;96527.50;;;7.99
19102;BMP280;9683;49.028;12.064;2022-12-22T10:43:55;96532.69;;;8.06
19102;BMP280;9683;49.028;12.064;2022-12-22T10:46:30;96532.59;;;8.12
19102;BMP280;9683;49.028;12.064;2022-12-22T10:49:09;96529.84;;;8.19
19102;BMP280;9683;49.028;12.064;2022-12-22T10:51:37;96530.34;;;8.27
19102;BMP280;9683;49.028;12.064;2022-12-22T10:54:03;96530.19;;;8.41
19102;BMP280;9683;49.028;12.064;2022-12-22T10:56:33;96518.09;;;8.56
19102;BMP280;9683;49.028;12.064;2022-12-22T10:59:12;96516.59;;;8.72
19102;BMP280;9683;49.028;12.064;2022-12-22T11:01:41;96518.56;;;8.88
19102;BMP280;9683;49.028;12.064;2022-12-22T11:04:15;96511.53;;;9.05
19102;BMP280;9683;49.028;12.064;2022-12-22T11:06:43;96517.19;;;9.20
19102;BMP280;9683;49.028;12.064;2022-12-22T11:09:10;96511.88;;;9.32
19102;BMP280;9683;49.028;12.064;2022-12-22T11:11:43;96515.06;;;9.46
19102;BMP280;9683;49.028;12.064;2022-12-22T11:14:18;96512.88;;;9.54
19102;BMP280;9683;49.028;12.064;2022-12-22T11:16:49;96508.53;;;9.65
19102;BMP280;9683;49.028;12.064;2022-12-22T11:19:45;96508.75;;;9.75
19102;BMP280;9683;49.028;12.064;2022-12-22T11:22:25;96496.72;;;9.84
19102;BMP280;9683;49.028;12.064;2022-12-22T11:25:06;96499.22;;;9.91
19102;BMP280;9683;49.028;12.064;2022-12-22T11:27:43;96495.13;;;10.00
19102;BMP280;9683;49.028;12.064;2022-12-22T11:30:15;96492.69;;;10.10
19102;BMP280;9683;49.028;12.064;2022-12-22T11:33:05;96487.06;;;10.23
19102;BMP280;9683;49.028;12.064;2022-12-22T11:35:50;96490.63;;;10.29
19102;BMP280;9683;49.028;12.064;2022-12-22T11:38:26;96485.72;;;10.37
19102;BMP280;9683;49.028;12.064;2022-12-22T11:41:01;96484.69;;;10.38
19102;BMP280;9683;49.028;12.064;2022-12-22T11:43:38;96475.97;;;10.43
19102;BMP280;9683;49.028;12.064;2022-12-22T11:46:21;96482.66;;;10.45
19102;BMP280;9683;49.028;12.064;2022-12-22T11:49:09;96486.13;;;10.46
19102;BMP280;9683;49.028;12.064;2022-12-22T11:51:51;96478.38;;;10.44
19102;BMP280;9683;49.028;12.064;2022-12-22T11:54:37;96474.44;;;10.47
19102;BMP280;9683;49.028;12.064;2022-12-22T11:57:13;96486.69;;;10.48
19102;BMP280;9683;49.028;12.064;2022-12-22T11:59:49;96489.34;;;10.48
19102;BMP280;9683;49.028;12.064;2022-12-22T12:02:35;96481.72;;;10.51
19102;BMP280;9683;49.028;12.064;2022-12-22T12:08:12;96489.75;;;10.56
19102;BMP280;9683;49.028;12.064;2022-12-22T12:10:45;96488.72;;;10.57
19102;BMP280;9683;49.028;12.064;2022-12-22T12:13:20;96487.16;;;10.62
19102;BMP280;9683;49.028;12.064;2022-12-22T12:15:55;96484.19;;;10.58
19102;BMP280;9683;49.028;12.064;2022-12-22T12:18:50;96477.56;;;10.61
19102;BMP280;9683;49.028;12.064;2022-12-22T12:21:25;96478.56;;;10.54
19102;BMP280;9683;49.028;12.064;2022-12-22T12:24:24;96483.66;;;10.56
19102;BMP280;9683;49.028;12.064;2022-12-22T12:26:59;96475.00;;;10.49
19102;BMP280;9683;49.028;12.064;2022-12-22T12:29:30;96473.06;;;10.44
19102;BMP280;9683;49.028;12.064;2022-12-22T12:32:10;96465.59;;;10.41
19102;BMP280;9683;49.028;12.064;2022-12-22T12:34:41;96468.97;;;10.37
19102;BMP280;9683;49.028;12.064;2022-12-22T12:37:14;96464.44;;;10.37
19102;BMP280;9683;49.028;12.064;2022-12-22T12:39:50;96466.06;;;10.38
19102;BMP280;9683;49.028;12.064;2022-12-22T12:42:25;96465.25;;;10.38
19102;BMP280;9683;49.028;12.064;2022-12-22T12:44:53;96458.22;;;10.32
19102;BMP280;9683;49.028;12.064;2022-12-22T12:47:24;96461.97;;;10.31
19102;BMP280;9683;49.028;12.064;2022-12-22T12:53:01;96456.06;;;10.29
19102;BMP280;9683;49.028;12.064;2022-12-22T12:55:30;96464.94;;;10.18
19102;BMP280;9683;49.028;12.064;2022-12-22T12:57:58;96470.13;;;10.12
19102;BMP280;9683;49.028;12.064;2022-12-22T13:00:43;96469.00;;;10.08
19102;BMP280;9683;49.028;12.064;2022-12-22T13:03:36;96466.34;;;10.08
19102;BMP280;9683;49.028;12.064;2022-12-22T13:06:04;96471.06;;;10.06
19102;BMP280;9683;49.028;12.064;2022-12-22T13:08:32;96472.69;;;10.07
19102;BMP280;9683;49.028;12.064;2022-12-22T13:11:27;96469.31;;;10.12
19102;BMP280;9683;49.028;12.064;2022-12-22T13:13:55;96454.41;;;10.11
19102;BMP280;9683;49.028;12.064;2022-12-22T13:16:33;96470.25;;;10.06
19102;BMP280;9683;49.028;12.064;2022-12-22T13:19:14;96462.22;;;10.01
19102;BMP280;9683;49.028;12.064;2022-12-22T13:21:44;96477.34;;;10.00
19102;BMP280;9683;49.028;12.064;2022-12-22T13:24:20;96463.25;;;10.00
19102;BMP280;9683;49.028;12.064;2022-12-22T13:26:50;96467.03;;;10.04
19102;BMP280;9683;49.028;12.064;2022-12-22T13:29:26;96464.38;;;10.04
19102;BMP280;9683;49.028;12.064;2022-12-22T13:31:55;96471.56;;;10.03
19102;BMP280;9683;49.028;12.064;2022-12-22T13:34:40;96469.38;;;10.00
19102;BMP280;9683;49.028;12.064;2022-12-22T13:37:16;96472.25;;;9.99
19102;BMP280;9683;49.028;12.064;2022-12-22T13:40:09;96475.97;;;9.98
19102;BMP280;9683;49.028;12.064;2022-12-22T13:42:39;96475.19;;;9.97
19102;BMP280;9683;49.028;12.064;2022-12-22T13:45:16;96481.22;;;9.93
19102;BMP280;9683;49.028;12.064;2022-12-22T13:47:44;96480.41;;;9.92
19102;BMP280;9683;49.028;12.064;2022-12-22T13:50:22;96486.25;;;9.94
19102;BMP280;9683;49.028;12.064;2022-12-22T13:52:50;96482.25;;;9.92
19102;BMP280;9683;49.028;12.064;2022-12-22T13:55:22;96480.84;;;9.89
19102;BMP280;9683;49.028;12.064;2022-12-22T13:57:50;96489.31;;;9.86
19102;BMP280;9683;49.028;12.064;2022-12-22T14:00:19;96480.53;;;9.86
19102;BMP280;9683;49.028;12.064;2022-12-22T14:02:47;96486.16;;;9.89
19102;BMP280;9683;49.028;12.064;2022-12-22T14:05:14;96480.78;;;9.84
19102;BMP280;9683;49.028;12.064;2022-12-22T14:10:35;96481.59;;;9.85
19102;BMP280;9683;49.028;12.064;2022-12-22T14:13:11;96485.59;;;9.87
19102;BMP280;9683;49.028;12.064;2022-12-22T14:15:39;96483.88;;;9.81
19102;BMP280;9683;49.028;12.064;2022-12-22T14:18:12;96486.81;;;9.80
19102;BMP280;9683;49.028;12.064;2022-12-22T14:20:39;96516.25;;;9.78
19102;BMP280;9683;49.028;12.064;2022-12-22T14:23:15;96499.50;;;9.78
19102;BMP280;9683;49.028;12.064;2022-12-22T14:25:45;96493.25;;;9.84
19102;BMP280;9683;49.028;12.064;2022-12-22T14:28:17;96495.44;;;9.87
19102;BMP280;9683;49.028;12.064;2022-12-22T14:30:48;96490.13;;;9.87
19102;BMP280;9683;49.028;12.064;2022-12-22T14:33:24;96495.19;;;9.88
19102;BMP280;9683;49.028;12.064;2022-12-22T14:36:03;96505.25;;;9.86
19102;BMP280;9683;49.028;12.064;2022-12-22T14:38:37;96516.78;;;9.92
19102;BMP280;9683;49.028;12.064;2022-12-22T14:41:10;96516.28;;;9.95
19102;BMP280;9683;49.028;12.064;2022-12-22T14:43:58;96526.44;;;9.98
19102;BMP280;9683;49.028;12.064;2022-12-22T14:46:25;96520.34;;;9.97
19102;BMP280;9683;49.028;12.064;2022-12-22T14:48:52;96521.13;;;9.98
19102;BMP280;9683;49.028;12.064;2022-12-22T14:51:18;96524.38;;;10.00
19102;BMP280;9683;49.028;12.064;2022-12-22T14:53:47;96530.59;;;10.05
19102;BMP280;9683;49.028;12.064;2022-12-22T14:56:16;96530.59;;;10.05
19102;BMP280;9683;49.028;12.064;2022-12-22T14:58:44;96530.59;;;10.05
19102;BMP280;9683;49.028;12.064;2022-12-22T15:01:17;96542.34;;;10.09
19102;BMP280;9683;49.028;12.064;2022-12-22T15:03:56;96545.00;;;10.09
19102;BMP280;9683;49.028;12.064;2022-12-22T15:06:33;96542.09;;;10.11
19102;BMP280;9683;49.028;12.064;2022-12-22T15:09:25;96546.88;;;10.09